• Join FlightAware (Why Join?)
  • Login
  • US Flag 
11:49PM EDT


 

Airport Tracker/Info


-or-


 

Live Flight TrackerFlight Track Log ✈ AIP5038 ✈ 06-Nov-2013 ✈ KMSO - KBIL

Flight Track Log - Related Links

Times and Time Zones

All times are in EST time to prevent confusion due to time zone crossing. See the AIP5038 flight status page for this flight to view local times or setup timezone preferences in your user account.

Time Position Orientation Groundspeed Altitude Reporting Facility
EST Latitude Longitude Course Direction KTS MPH feet Rate Location/Type
03:16AM 46.9167 -114.1161 108° East 107 123 4,900  Level Salt Lake Center
03:17AM 46.8972 -114.0814 129° Southeast 139 160 7,200 2,100 Climbing Salt Lake Center
03:18AM 46.8317 -113.6052 106° East  Level Estimated
03:18AM 46.8883 -114.0181 102° East 149 171 9,200  Level Salt Lake Center
03:19AM 46.8143 -113.5108 105° East  Level FlightAware Approximate
03:19AM 46.8767 -113.9528 105° East 163 188 11,000  Level Salt Lake Center
03:20AM 46.7962 -113.4163 108° East  Level FlightAware Approximate
03:20AM 46.8681 -113.8819 100° East 177 204 12,600  Level Salt Lake Center
03:21AM 46.7756 -113.3234 108° East  Level FlightAware Approximate
03:21AM 46.8569 -113.8083 102° East 185 213 13,900  Level Salt Lake Center
03:22AM 46.8394 -113.7364 110° East 188 216 15,100 1,080 Climbing Salt Lake Center
03:23AM 46.8267 -113.6592 104° East 195 224 16,100 960 Climbing Salt Lake Center
03:24AM 46.8094 -113.5808 108° East 202 232 17,100 480 Climbing Salt Lake Center
03:25AM 46.7897 -113.4892 107° East 237 273 17,100  Level Salt Lake Center
03:26AM 46.7722 -113.3933 105° East 247 284 17,100  Level Salt Lake Center
03:27AM 46.7572 -113.2933 102° East 252 290 17,100 -60 Level Salt Lake Center
03:28AM 46.7428 -113.1983 102° East 252 290 17,000 -60 Descending Salt Lake Center
03:29AM 46.7258 -113.1008 104° East 250 288 17,000  Level Salt Lake Center
03:30AM 46.7061 -113.0050 107° East 248 285 17,100  Climbing Salt Lake Center
03:31AM 46.6958 -112.9036 98° East 253 291 17,100 -60 Level Salt Lake Center
03:32AM 46.6747 -112.8061 107° East 246 283 17,000 -60 Descending Salt Lake Center
03:33AM 46.6544 -112.7122 107° East 242 278 17,000  Level Salt Lake Center
03:34AM 46.6389 -112.6156 103° East 247 284 17,000  Level Salt Lake Center
03:35AM 46.6192 -112.5175 106° East 254 292 17,000  Level Salt Lake Center
03:36AM 46.5975 -112.4208 108° East 253 291 17,000  Level Salt Lake Center
03:37AM 46.5794 -112.3239 105° East 251 289 17,000  Level Salt Lake Center
03:38AM 46.5581 -112.2314 109° East 243 280 17,100 -60 Climbing Salt Lake Center
03:39AM 46.5394 -112.1328 105° East 252 290 16,900 -120 Descending Salt Lake Center
03:40AM 46.5208 -112.0308 105° East 261 300 16,900  Level Salt Lake Center
03:41AM 46.5011 -111.9358 107° East 252 290 16,900  Level Salt Lake Center
03:42AM 46.4858 -111.8381 103° East 250 288 16,900  Level Salt Lake Center
03:43AM 46.4658 -111.7411 107° East 250 288 17,000  Climbing Salt Lake Center
03:44AM 46.4453 -111.6472 108° East 246 283 17,000  Level Salt Lake Center
03:45AM 46.4228 -111.5425 107° East 246 283 17,000  Level Salt Lake Center
03:46AM 46.4033 -111.4458 106° East 246 283 17,000  Level Salt Lake Center
03:47AM 46.3867 -111.3481 104° East 246 283 17,000  Level Salt Lake Center
03:48AM 46.3758 -111.2553 100° East 249 287 17,000  Level Salt Lake Center
03:49AM 46.3525 -111.1589 109° East 249 287 17,000  Level Salt Lake Center
03:50AM 46.3303 -111.0644 109° East 245 282 17,100  Climbing Salt Lake Center
03:51AM 46.3092 -110.9703 108° East 243 280 17,000 -120 Descending Salt Lake Center
03:52AM 46.2914 -110.8881 107° East 242 278 16,900  Descending Salt Lake Center
03:53AM 46.2753 -110.7911 103° East 245 282 17,000  Climbing Salt Lake Center
03:54AM 46.2558 -110.6978 107° East 244 281 17,000  Level Salt Lake Center
03:55AM 46.2347 -110.6050 108° East 245 282 17,000  Level Salt Lake Center
03:56AM 46.2208 -110.5092 102° East 244 281 17,000  Level Salt Lake Center
03:57AM 46.1981 -110.4183 110° East 242 278 17,000  Level Salt Lake Center
03:58AM 46.1789 -110.3239 106° East 246 283 17,000  Level Salt Lake Center
03:59AM 46.1572 -110.2311 109° East 245 282 17,100  Climbing Salt Lake Center
04:00AM 46.1381 -110.1353 106° East 248 285 17,000 -120 Descending Salt Lake Center
04:01AM 46.1203 -110.0394 105° East 248 285 16,900  Descending Salt Lake Center
04:02AM 46.1000 -109.9506 108° East 239 275 17,100  Climbing Salt Lake Center
04:03AM 46.0800 -109.8561 107° East 244 281 17,000 -60 Descending Salt Lake Center
04:04AM 46.0589 -109.7433 105° East 254 292 17,000 -300 Level Salt Lake Center
04:05AM 46.0400 -109.6458 106° East 256 295 16,400 -720 Descending Salt Lake Center
04:06AM 46.0211 -109.5464 105° East 260 299 15,600 -900 Descending Salt Lake Center
04:07AM 45.9967 -109.4444 109° East 271 312 14,600 -1,020 Descending Salt Lake Center
04:08AM 45.9697 -109.3464 112° Southeast 269 310 13,600 -1,200 Descending Salt Lake Center
04:09AM 45.9428 -109.2422 110° East 280 322 12,300 -1,560 Descending Salt Lake Center
04:10AM 45.9208 -109.1278 105° East 277 319 10,500 -1,620 Descending Salt Lake Center
04:11AM 45.9058 -109.0217 101° East 275 316 9,100 -1,200 Descending Salt Lake Center
04:12AM 45.8828 -108.9247 109° East 263 303 8,100 -1,020 Descending Salt Lake Center
04:13AM 45.8664 -108.8294 104° East 252 290 7,100 -840 Descending Salt Lake Center
04:14AM 45.8594 -108.7356 96° East 242 278 6,500 -840 Descending Salt Lake Center
04:15AM 45.8422 -108.6600 108° East 208 239 5,500 -960 Descending Salt Lake Center
04:16AM 45.8256 -108.5992 111° Southeast 170 196 4,600 -960 Descending Salt Lake Center
04:17AM 45.8117 -108.5506 112° Southeast 131 151 3,600 -1,020 Descending Salt Lake Center
04:19AM 45.8077 -108.5429 90° East  Level Estimated